Flight Track Log - Related Links

Times and Time Zones

All times are in EDT time to prevent confusion due to time zone crossing. See the RPA3253 flight status page for this flight to view local times or setup timezone preferences in your user account.

Time Position Orientation Groundspeed Altitude Reporting Facility
EDT Latitude Longitude Course Direction KTS MPH feet Rate Location/Type
Fri 07:44:27 PM 42.7694 -73.8089 169° South 153 176 1,100  Level Boston Center
Fri 07:45:40 PM 42.8294 -73.8472 335° Northwest 222 255 3,100 2,100 Climbing Boston Center
Fri 07:46:00 PM 42.5160 -74.0551 171° South  Level Estimated
Fri 07:47:00 PM 42.4382 -74.1391 180° South  Level Estimated
Fri 07:47:07 PM 42.8950 -73.9308 317° Northwest 246 283 6,700  Level Boston Center
Fri 07:48:00 PM 42.3603 -74.2228 170° South  Level Estimated
Fri 07:48:06 PM 42.9358 -73.9997 309° West 246 283 8,600  Level Boston Center
Fri 07:49:00 PM 42.2824 -74.3064 169° South  Level Estimated
Fri 07:49:06 PM 42.9383 -74.1106 272° West 256 295 11,000  Level Boston Center
Fri 07:50:07 PM 42.9367 -74.2183 269° West 295 339 12,300 1,884 Climbing Boston Center
Fri 07:51:07 PM 42.9347 -74.3486 269° West 320 368 14,800 2,118 Climbing Boston Center
Fri 07:52:06 PM 42.8936 -74.4381 238° Southwest 311 358 16,500 1,550 Climbing Boston Center
Fri 07:53:07 PM 42.7900 -74.3981 164° South 272 313 17,900 1,150 Climbing Boston Center
Fri 07:54:06 PM 42.7158 -74.3392 150° Southeast 363 418 18,800 1,350 Climbing Boston Center
Fri 07:55:07 PM 42.6028 -74.2511 150° Southeast 374 430 20,600 1,438 Climbing Boston Center
Fri 07:56:07 PM 42.5161 -74.1836 150° Southeast 390 449 21,700 1,150 Climbing Boston Center
Fri 07:57:07 PM 42.4175 -74.1050 150° Southeast 397 457 22,900 1,150 Climbing Boston Center
Fri 07:58:07 PM 42.3164 -74.0264 150° Southeast 409 471 24,000 1,000 Climbing Boston Center
Fri 07:59:07 PM 42.2153 -73.9483 150° Southeast 414 476 24,900 1,008 Climbing Boston Center
Fri 08:00:06 PM 42.1100 -73.8672 150° Southeast 419 482 26,000 1,050 Climbing Boston Center
Fri 08:01:07 PM 41.9953 -73.8703 181° South 409 471 27,000 1,440 Climbing Boston Center
Fri 08:03:26 PM 41.7383 -73.9903 199° South 398 458 30,800 1,440 Climbing New York Center
Fri 08:04:27 PM 41.6350 -74.0350 198° South 403 464 31,800 694 Climbing New York Center
Fri 08:05:27 PM 41.5339 -74.0772 197° South 403 464 32,200 202 Climbing New York Center
Fri 08:06:26 PM 41.4256 -74.1494 207° Southwest 410 472 32,200 250 Level New York Center
Fri 08:07:27 PM 41.3375 -74.2472 220° Southwest 422 486 32,700 559 Climbing New York Center
Fri 08:08:24 PM 41.2494 -74.3308 216° Southwest 429 494 33,300 610 Climbing New York Center
Fri 08:09:25 PM 41.1572 -74.4253 218° Southwest 434 499 33,900 347 Climbing New York Center
Fri 08:10:25 PM 41.0581 -74.5244 217° Southwest 434 499 34,000 50 Climbing New York Center
Fri 08:11:26 PM 40.9611 -74.6261 218° Southwest 440 506 34,000  Level New York Center
Fri 08:12:27 PM 40.8661 -74.7250 218° Southwest 445 512 34,000 -51 Level New York Center
Fri 08:13:24 PM 40.7669 -74.8233 217° Southwest 445 512 33,900  Descending New York Center
Fri 08:14:26 PM 40.6742 -74.9192 218° Southwest 445 512 34,000 50 Climbing New York Center
Fri 08:15:25 PM 40.5814 -75.0119 217° Southwest 440 506 34,000  Level New York Center
Fri 08:16:25 PM 40.4883 -75.1044 217° Southwest 435 501 34,000  Level New York Center
Fri 08:17:27 PM 40.3908 -75.2044 218° Southwest 441 507 34,000  Level New York Center
Fri 08:18:27 PM 40.2975 -75.3019 219° Southwest 441 507 34,000  Level New York Center
Fri 08:19:26 PM 40.2019 -75.3964 217° Southwest 436 502 34,000  Level New York Center
Fri 08:20:27 PM 40.1044 -75.4931 217° Southwest 441 507 34,000  Level New York Center
Fri 08:21:24 PM 40.0069 -75.5867 216° Southwest 441 507 34,000  Level New York Center
Fri 08:22:27 PM 39.9131 -75.6858 219° Southwest 441 507 34,000  Level New York Center
Fri 08:23:26 PM 39.8350 -75.8072 230° Southwest 435 501 34,000  Level New York Center
Fri 08:24:24 PM 39.7608 -75.9289 232° Southwest 440 506 34,000  Level New York Center
Fri 08:25:25 PM 39.6847 -76.0503 231° Southwest 440 506 34,000  Level New York Center
Fri 08:26:29 PM 39.5914 -76.1919 229° Southwest 459 528 34,000  Level Washington Center
Fri 08:27:30 PM 39.5156 -76.3153 231° Southwest 452 520 34,000  Level Washington Center
Fri 08:28:30 PM 39.4378 -76.4325 229° Southwest 446 513 34,000  Level Washington Center
Fri 08:29:28 PM 39.3578 -76.5525 229° Southwest 446 513 34,000  Level Washington Center
Fri 08:30:29 PM 39.2794 -76.6722 230° Southwest 446 513 34,000  Level Washington Center
Fri 08:31:30 PM 39.2033 -76.7917 231° Southwest 446 513 34,000  Level Washington Center
Fri 08:32:28 PM 39.1272 -76.9081 230° Southwest 446 513 34,000  Level Washington Center
Fri 08:33:29 PM 39.0486 -77.0269 230° Southwest 446 513 34,000  Level Washington Center
Fri 08:34:29 PM 38.9578 -77.1344 223° Southwest 439 505 34,000  Level Washington Center
Fri 08:35:28 PM 38.8667 -77.2314 220° Southwest 439 505 34,000  Level Washington Center
Fri 08:36:28 PM 38.7736 -77.3306 220° Southwest 439 505 34,000  Level Washington Center
Fri 08:37:30 PM 38.6803 -77.4347 221° Southwest 439 505 34,000  Level Washington Center
Fri 08:38:30 PM 38.5978 -77.5228 220° Southwest 439 505 34,000  Level Washington Center
Fri 08:39:28 PM 38.5083 -77.6239 222° Southwest 439 505 34,000  Level Washington Center
Fri 08:40:29 PM 38.4172 -77.7222 220° Southwest 439 505 34,000  Level Washington Center
Fri 08:41:30 PM 38.3256 -77.8228 221° Southwest 439 505 34,000  Level Washington Center
Fri 08:42:27 PM 38.2342 -77.9206 220° Southwest 439 505 34,000  Level Washington Center
Fri 08:43:29 PM 38.1425 -78.0208 221° Southwest 439 505 34,000  Level Washington Center
Fri 08:44:30 PM 38.0508 -78.1178 220° Southwest 439 505 34,000  Level Washington Center
Fri 08:45:30 PM 37.9692 -78.2233 226° Southwest 434 499 34,000  Level Washington Center
Fri 08:46:28 PM 37.8808 -78.3517 229° Southwest 434 499 34,000  Level Washington Center
Fri 08:47:29 PM 37.8031 -78.4644 229° Southwest 434 499 34,000  Level Washington Center
Fri 08:48:29 PM 37.7231 -78.5769 228° Southwest 434 499 34,000  Level Washington Center
Fri 08:49:30 PM 37.6517 -78.6792 229° Southwest 429 494 34,000  Level Washington Center
Fri 08:50:30 PM 37.5739 -78.7858 227° Southwest 429 494 34,000  Level Washington Center
Fri 08:51:30 PM 37.4958 -78.8978 229° Southwest 429 494 34,000  Level Washington Center
Fri 08:52:28 PM 37.4175 -79.0069 228° Southwest 429 494 34,000  Level Washington Center
Fri 08:53:30 PM 37.3372 -79.1208 228° Southwest 429 494 34,000  Level Washington Center
Fri 08:54:30 PM 37.2481 -79.2394 227° Southwest 429 494 34,000 -50 Level Washington Center
Fri 08:55:30 PM 37.1517 -79.3208 214° Southwest 423 487 33,900 -763 Descending Washington Center
Fri 08:56:28 PM 37.0553 -79.4019 214° Southwest 423 487 32,500 -958 Descending Washington Center
Fri 08:57:29 PM 36.9567 -79.4828 213° Southwest 423 487 32,000 -246 Descending Washington Center
Fri 08:58:30 PM 36.8603 -79.5611 213° Southwest 428 493 32,000  Level Washington Center
Fri 08:59:30 PM 36.7722 -79.6344 214° Southwest 433 498 32,000 -1,405 Level Washington Center
Fri 09:01:08 PM 36.5972 -79.7722 212° Southwest 421 484 28,300 -2,203 Descending Atlanta Center
Fri 09:02:08 PM 36.5019 -79.8522 214° Southwest 421 484 26,200 -2,100 Descending Atlanta Center
Fri 09:03:08 PM 36.4128 -79.9267 214° Southwest 416 479 24,100 -2,000 Descending Atlanta Center
Fri 09:04:08 PM 36.3317 -79.9925 213° Southwest 399 459 22,200 -1,050 Descending Atlanta Center
Fri 09:05:08 PM 36.2464 -80.0639 214° Southwest 387 445 22,000 -1,150 Descending Atlanta Center
Fri 09:06:08 PM 36.1611 -80.1375 215° Southwest 381 438 19,900 -2,050 Descending Atlanta Center
Fri 09:07:08 PM 36.0797 -80.2056 214° Southwest 369 425 17,900 -1,900 Descending Atlanta Center
Fri 09:08:08 PM 35.9944 -80.2789 215° Southwest 359 413 16,100 -1,500 Descending Atlanta Center
Fri 09:09:08 PM 35.9233 -80.3386 214° Southwest 351 404 14,900 -1,300 Descending Atlanta Center
Fri 09:10:08 PM 35.8461 -80.4061 215° Southwest 351 404 13,500 -1,150 Descending Atlanta Center
Fri 09:11:08 PM 35.7708 -80.4708 215° Southwest 342 394 12,600 -1,200 Descending Atlanta Center
Fri 09:12:08 PM 35.6892 -80.5383 214° Southwest 336 387 11,100 -800 Descending Atlanta Center
Fri 09:13:08 PM 35.6158 -80.5978 213° Southwest 326 375 11,000 -50 Descending Atlanta Center
Fri 09:14:08 PM 35.5444 -80.6619 216° Southwest 326 375 11,000  Level Atlanta Center
Fri 09:15:08 PM 35.4689 -80.7211 213° Southwest 326 375 11,000  Level Atlanta Center
Fri 09:16:17 PM 35.3894 -80.7906 215° Southwest 321 369 11,000 -92 Level Atlanta Center
Fri 09:17:18 PM 35.3114 -80.8419 208° Southwest 299 344 10,800 -595 Descending Atlanta Center
Fri 09:18:08 PM 35.2531 -80.8392 178° South 285 328 9,900 -1,587 Descending Atlanta Center
Fri 09:19:19 PM 35.1506 -80.8306 176° South 281 323 7,600 -1,864 Descending Atlanta Center
Fri 09:20:20 PM 35.0731 -80.8208 174° South 281 323 5,800 -1,475 Descending Atlanta Center
Fri 09:21:21 PM 35.0136 -80.8561 206° Southwest 269 310 4,600 -885 Descending Atlanta Center
Fri 09:22:22 PM 35.0442 -80.9158 302° West 224 258 4,000 -590 Descending Atlanta Center

Login

Don't have an account? Register now (free) for customized features, flight alerts, and more!